Time;durP1;ratioP1;P1;durP2;ratioP2;P2;SDS_P1;SDS_P2;PMS_P1;PMS_P2;Temp;Humidity;BMP_temperature;BMP_pressure;BME280_temperature;BME280_humidity;BME280_pressure;Samples;Min_cycle;Max_cycle;Signal;HPM_P1;HPM_P2
2022/04/04 00:01:21;;;;;;;12.60;11.33;;;3.10;67.60;;;;;;5006618;28;20467;-45
2022/04/04 00:03:47;;;;;;;13.57;12.07;;;3.10;67.80;;;;;;5007767;28;20490;-46
2022/04/04 00:06:14;;;;;;;13.93;12.57;;;3.10;67.80;;;;;;5022719;28;20941;-45
2022/04/04 00:08:41;;;;;;;12.80;11.50;;;3.10;67.70;;;;;;5024977;28;20554;-45
2022/04/04 00:11:08;;;;;;;13.50;12.10;;;3.10;68.00;;;;;;5008134;28;20484;-45
2022/04/04 00:13:34;;;;;;;12.90;11.60;;;3.10;67.80;;;;;;5025114;28;20471;-46
2022/04/04 00:16:01;;;;;;;13.20;11.90;;;3.00;67.70;;;;;;5023518;28;20459;-46
2022/04/04 00:18:28;;;;;;;12.63;11.33;;;3.00;67.70;;;;;;5023711;28;20971;-46
2022/04/04 00:20:55;;;;;;;12.77;11.47;;;3.00;67.50;;;;;;5006176;28;20459;-46
2022/04/04 00:23:21;;;;;;;13.40;11.90;;;3.10;67.20;;;;;;5006059;28;20451;-46
2022/04/04 00:25:49;;;;;;;13.73;11.97;;;3.10;66.90;;;;;;5025203;28;20463;-46
2022/04/04 00:28:16;;;;;;;13.33;11.60;;;3.00;66.90;;;;;;5005833;28;21128;-45
2022/04/04 00:30:43;;;;;;;13.13;11.40;;;3.00;67.00;;;;;;5025969;28;20463;-45
2022/04/04 00:33:10;;;;;;;14.57;12.40;;;3.00;66.90;;;;;;5023249;28;20968;-46
2022/04/04 00:35:36;;;;;;;14.03;11.93;;;3.00;66.80;;;;;;5023589;28;20464;-46
2022/04/04 00:38:05;;;;;;;11.70;10.60;;;3.00;66.90;;;;;;5006981;28;21500;-46
2022/04/04 00:40:31;;;;;;;12.03;10.77;;;3.00;66.80;;;;;;5025310;28;20462;-46
2022/04/04 00:42:58;;;;;;;13.40;12.00;;;3.00;66.90;;;;;;5023314;28;20462;-45
2022/04/04 00:45:25;;;;;;;14.67;13.17;;;3.00;67.00;;;;;;5021339;28;20466;-46
2022/04/04 00:47:52;;;;;;;15.73;11.83;;;3.00;67.00;;;;;;5025073;28;20471;-46
2022/04/04 00:50:19;;;;;;;13.17;11.87;;;3.00;66.90;;;;;;5004264;28;20463;-45
2022/04/04 00:52:45;;;;;;;13.63;12.17;;;3.00;67.00;;;;;;5025725;28;20935;-46
2022/04/04 00:55:12;;;;;;;13.07;11.77;;;2.90;67.10;;;;;;5024442;28;20490;-45
2022/04/04 00:57:40;;;;;;;20.87;12.03;;;2.90;66.80;;;;;;5009343;28;20464;-46
2022/04/04 01:00:09;;;;;;;12.90;11.60;;;2.90;66.60;;;;;;5021852;28;20467;-45
2022/04/04 01:02:37;;;;;;;14.17;12.27;;;2.90;66.40;;;;;;4982927;28;20513;-45
2022/04/04 01:05:04;;;;;;;12.53;10.83;;;2.90;66.00;;;;;;5005039;28;20467;-46
2022/04/04 01:07:31;;;;;;;13.30;12.00;;;2.90;66.60;;;;;;5024183;28;20551;-46
2022/04/04 01:09:58;;;;;;;13.53;11.30;;;2.90;67.00;;;;;;5023011;28;20470;-46
2022/04/04 01:12:25;;;;;;;13.57;10.97;;;2.80;67.00;;;;;;5023120;28;20470;-46
2022/04/04 01:14:52;;;;;;;14.90;11.13;;;2.80;67.00;;;;;;5006552;28;21286;-46
2022/04/04 01:17:25;;;;;;;16.77;12.10;;;2.90;67.10;;;;;;5019734;28;20502;-46
2022/04/04 01:19:52;;;;;;;12.60;10.30;;;2.80;67.30;;;;;;5021572;28;20467;-46
2022/04/04 01:22:19;;;;;;;13.83;10.30;;;2.80;67.30;;;;;;5022417;28;20467;-46
2022/04/04 01:24:46;;;;;;;12.57;11.23;;;2.70;67.20;;;;;;5023006;28;20474;-45
2022/04/04 01:27:13;;;;;;;11.87;10.67;;;2.70;67.40;;;;;;5006144;28;20482;-46
2022/04/04 01:29:40;;;;;;;10.93;9.93;;;2.70;67.20;;;;;;5006972;28;20566;-45
2022/04/04 01:32:08;;;;;;;13.80;11.90;;;2.70;67.30;;;;;;5022619;28;21090;-45
2022/04/04 01:34:35;;;;;;;11.53;10.33;;;2.70;67.40;;;;;;5025369;28;20495;-46
2022/04/04 01:37:03;;;;;;;13.67;12.27;;;2.70;67.30;;;;;;5023759;28;20467;-46
2022/04/04 01:39:30;;;;;;;11.90;10.70;;;2.70;67.50;;;;;;5004972;28;20453;-46
2022/04/04 01:41:57;;;;;;;14.30;10.50;;;2.60;67.60;;;;;;5024954;28;20459;-45
2022/04/04 01:44:23;;;;;;;13.83;12.10;;;2.60;68.00;;;;;;5025566;28;20482;-45
2022/04/04 01:46:50;;;;;;;12.00;10.90;;;2.60;68.00;;;;;;4989760;28;20469;-45
2022/04/04 01:49:17;;;;;;;12.60;10.83;;;2.60;68.10;;;;;;5023900;28;20462;-45
2022/04/04 01:51:44;;;;;;;13.53;11.17;;;2.60;68.00;;;;;;5022192;28;20471;-46
2022/04/04 01:54:11;;;;;;;13.60;12.13;;;2.60;67.80;;;;;;5022805;28;20487;-45
2022/04/04 01:56:38;;;;;;;13.13;10.63;;;2.60;68.10;;;;;;5022657;28;20459;-46
2022/04/04 01:59:04;;;;;;;13.47;12.03;;;2.60;68.00;;;;;;5002245;28;20459;-45
2022/04/04 02:01:34;;;;;;;12.83;11.50;;;2.60;67.80;;;;;;5005425;28;20864;-46
2022/04/04 02:04:02;;;;;;;12.70;11.07;;;2.60;68.00;;;;;;5003406;28;20451;-46
2022/04/04 02:06:30;;;;;;;13.50;11.00;;;2.60;68.40;;;;;;5008715;28;20952;-45
2022/04/04 02:08:56;;;;;;;12.83;10.97;;;2.60;68.50;;;;;;5023675;28;20899;-46
2022/04/04 02:11:23;;;;;;;13.00;11.00;;;2.60;68.50;;;;;;5025473;28;20531;-46
2022/04/04 02:13:50;;;;;;;14.33;12.27;;;2.60;68.60;;;;;;5025157;28;20863;-45
2022/04/04 02:16:17;;;;;;;13.17;11.77;;;2.60;68.60;;;;;;5023531;28;20452;-45
2022/04/04 02:18:44;;;;;;;13.07;11.77;;;2.60;68.50;;;;;;5025267;28;20932;-46
2022/04/04 02:21:11;;;;;;;14.37;12.97;;;2.70;68.20;;;;;;5023569;28;20455;-42
2022/04/04 02:23:38;;;;;;;12.60;11.10;;;2.60;68.60;;;;;;5009398;28;20477;-42
2022/04/04 02:26:05;;;;;;;12.20;10.90;;;2.60;68.50;;;;;;5024344;28;20938;-43
2022/04/04 02:28:32;;;;;;;14.40;11.57;;;2.60;68.70;;;;;;5010188;28;20467;-42
2022/04/04 02:30:59;;;;;;;14.50;12.60;;;2.70;68.80;;;;;;5026813;28;20471;-42
2022/04/04 02:33:27;;;;;;;15.33;13.40;;;2.70;69.10;;;;;;5024932;28;20518;-42
2022/04/04 02:35:55;;;;;;;17.47;12.27;;;2.60;68.90;;;;;;5026209;28;20488;-42
2022/04/04 02:38:27;;;;;;;13.60;12.27;;;2.60;68.90;;;;;;5027139;28;20454;-44
2022/04/04 02:40:55;;;;;;;13.10;11.87;;;2.70;68.90;;;;;;5026790;28;20463;-46
2022/04/04 02:43:23;;;;;;;13.43;12.10;;;2.60;68.90;;;;;;5027936;28;20477;-46
2022/04/04 02:45:50;;;;;;;15.30;12.80;;;2.60;69.00;;;;;;5023039;28;20464;-45
2022/04/04 02:48:17;;;;;;;16.67;12.90;;;2.60;69.10;;;;;;5028447;28;20528;-45
2022/04/04 02:50:45;;;;;;;11.80;10.70;;;2.60;68.90;;;;;;5025291;28;20455;-46
2022/04/04 02:53:12;;;;;;;15.17;11.73;;;2.50;68.70;;;;;;5026160;28;20845;-46
2022/04/04 02:58:25;;;;;;;15.50;13.07;;;2.50;68.40;;;;;;5026466;28;20468;-46
2022/04/04 03:00:51;;;;;;;15.03;13.03;;;2.40;68.70;;;;;;5025659;28;20463;-45
2022/04/04 03:03:19;;;;;;;15.53;12.37;;;2.40;68.70;;;;;;5029752;28;20459;-45
2022/04/04 03:05:46;;;;;;;12.83;11.37;;;2.40;68.90;;;;;;5028797;28;20487;-46
2022/04/04 03:08:13;;;;;;;14.83;12.90;;;2.40;69.10;;;;;;5026774;28;20510;-45
2022/04/04 03:10:40;;;;;;;14.63;13.03;;;2.40;69.10;;;;;;5025644;28;20471;-45
2022/04/04 03:13:07;;;;;;;15.00;12.23;;;2.40;69.30;;;;;;5006178;28;20546;-46
2022/04/04 03:15:35;;;;;;;13.33;11.60;;;2.30;69.30;;;;;;5025259;28;20495;-46
2022/04/04 03:18:03;;;;;;;12.27;11.07;;;2.30;69.50;;;;;;5022415;28;20467;-45
2022/04/04 03:20:31;;;;;;;13.63;12.17;;;2.40;69.60;;;;;;5025834;28;20566;-45
2022/04/04 03:22:58;;;;;;;14.13;12.40;;;2.40;69.60;;;;;;5026280;28;20460;-45
2022/04/04 03:25:26;;;;;;;13.63;11.93;;;2.40;69.50;;;;;;5023265;28;20835;-45
2022/04/04 03:27:53;;;;;;;15.37;13.30;;;2.50;69.40;;;;;;5018769;28;20519;-45
2022/04/04 03:30:26;;;;;;;13.93;12.10;;;2.40;69.50;;;;;;5006233;28;20462;-45
2022/04/04 03:32:57;;;;;;;12.90;11.50;;;2.40;69.60;;;;;;5025650;28;20460;-45
2022/04/04 03:35:27;;;;;;;14.27;12.77;;;2.40;69.60;;;;;;5023770;28;20503;-45
2022/04/04 03:37:56;;;;;;;12.60;11.13;;;2.40;69.80;;;;;;5004348;28;20459;-45
2022/04/04 03:40:23;;;;;;;13.97;11.73;;;2.40;69.90;;;;;;5006504;28;20463;-45
2022/04/04 03:42:52;;;;;;;14.43;11.87;;;2.50;69.60;;;;;;5024071;28;20494;-45
2022/04/04 03:45:20;;;;;;;13.17;11.40;;;2.50;69.50;;;;;;5025945;28;20514;-45
2022/04/04 03:47:48;;;;;;;12.60;10.77;;;2.50;69.80;;;;;;5008427;28;20464;-45
2022/04/04 03:50:16;;;;;;;14.30;12.00;;;2.50;70.00;;;;;;5023361;28;20465;-45
2022/04/04 03:52:45;;;;;;;12.27;11.00;;;2.50;70.00;;;;;;5024531;28;20968;-45
2022/04/04 03:55:12;;;;;;;16.20;14.60;;;2.50;69.90;;;;;;5024938;28;20510;-46
2022/04/04 03:57:40;;;;;;;14.23;12.57;;;2.50;69.90;;;;;;5025257;28;20499;-46
2022/04/04 04:00:09;;;;;;;13.80;12.17;;;2.50;69.70;;;;;;5022635;28;20465;-45
2022/04/04 04:02:37;;;;;;;13.57;12.17;;;2.60;69.60;;;;;;5025092;28;20459;-45
2022/04/04 04:05:09;;;;;;;11.70;10.60;;;2.60;69.40;;;;;;5009411;28;20459;-45
2022/04/04 04:07:36;;;;;;;11.80;10.50;;;2.60;68.20;;;;;;5024743;28;20464;-45
2022/04/04 04:10:03;;;;;;;13.97;9.90;;;2.60;68.40;;;;;;5006059;28;20965;-45
2022/04/04 04:12:31;;;;;;;13.93;10.07;;;2.60;68.60;;;;;;5004935;28;20459;-45
2022/04/04 04:14:58;;;;;;;12.23;11.03;;;2.60;68.90;;;;;;5004005;28;20487;-45
2022/04/04 04:17:25;;;;;;;11.73;10.57;;;2.50;69.00;;;;;;5008464;28;20460;-45
2022/04/04 04:22:38;;;;;;;11.27;10.13;;;2.60;68.90;;;;;;5021883;28;20905;-45
2022/04/04 04:25:06;;;;;;;12.83;11.53;;;2.60;68.60;;;;;;5025125;28;20498;-46
2022/04/04 04:27:33;;;;;;;12.90;11.60;;;2.70;68.90;;;;;;5007740;28;20850;-45
2022/04/04 04:29:59;;;;;;;12.53;10.73;;;2.70;68.90;;;;;;5022506;28;20459;-45
2022/04/04 04:32:26;;;;;;;14.07;11.20;;;2.70;68.50;;;;;;5000738;28;21086;-45
2022/04/04 04:34:53;;;;;;;14.50;11.53;;;2.70;68.40;;;;;;5021958;28;20974;-45
2022/04/04 04:37:23;;;;;;;12.63;11.30;;;2.70;68.50;;;;;;5024673;28;20462;-46
2022/04/04 04:39:50;;;;;;;11.83;10.50;;;2.70;68.60;;;;;;5024688;28;20460;-45
2022/04/04 04:42:17;;;;;;;11.83;10.27;;;2.70;68.30;;;;;;5022924;28;20498;-46
2022/04/04 04:44:45;;;;;;;11.77;10.57;;;2.80;68.10;;;;;;5004708;28;20471;-46
2022/04/04 04:47:12;;;;;;;14.50;11.30;;;2.70;67.80;;;;;;5006563;28;20459;-44
2022/04/04 04:49:39;;;;;;;12.27;11.03;;;2.70;68.30;;;;;;5024101;28;20467;-46
2022/04/04 04:52:06;;;;;;;11.03;9.93;;;2.70;68.20;;;;;;5020498;28;20464;-45
2022/04/04 04:54:35;;;;;;;11.93;10.83;;;2.60;68.20;;;;;;5006486;28;20829;-45
2022/04/04 04:57:02;;;;;;;16.83;11.73;;;2.60;68.60;;;;;;5020956;28;20993;-44
2022/04/04 04:59:29;;;;;;;11.10;9.90;;;2.60;68.80;;;;;;5023081;28;20468;-45
2022/04/04 05:01:55;;;;;;;13.20;10.90;;;2.60;68.70;;;;;;5022773;28;21057;-45
2022/04/04 05:04:22;;;;;;;12.47;11.13;;;2.60;68.60;;;;;;5022668;28;20451;-46
2022/04/04 05:06:49;;;;;;;17.10;10.97;;;2.60;68.50;;;;;;5005875;28;20854;-45
2022/04/04 05:09:17;;;;;;;13.57;11.47;;;2.60;68.70;;;;;;5023952;28;21045;-45
2022/04/04 05:11:44;;;;;;;12.70;10.73;;;2.60;68.90;;;;;;5015489;28;20944;-46
2022/04/04 05:14:18;;;;;;;15.30;13.50;;;2.60;69.00;;;;;;5022546;28;20952;-46
2022/04/04 05:16:45;;;;;;;13.70;12.30;;;2.50;69.20;;;;;;5024795;28;20457;-45
2022/04/04 05:19:17;;;;;;;14.20;12.27;;;2.50;69.40;;;;;;5022278;28;20457;-46
2022/04/04 05:21:43;;;;;;;13.50;12.20;;;2.50;69.80;;;;;;5023028;28;20992;-46
2022/04/04 05:24:10;;;;;;;13.73;12.30;;;2.50;69.70;;;;;;5025473;28;20895;-46
2022/04/04 05:26:37;;;;;;;14.70;12.77;;;2.50;69.90;;;;;;5021336;28;20514;-46
2022/04/04 05:29:04;;;;;;;13.07;11.77;;;2.50;70.00;;;;;;5024675;28;20832;-46
2022/04/04 05:31:32;;;;;;;14.00;12.60;;;2.50;70.20;;;;;;5022636;28;20844;-45
2022/04/04 05:33:59;;;;;;;21.30;13.13;;;2.50;70.10;;;;;;5023948;28;21157;-46
2022/04/04 05:36:27;;;;;;;15.50;13.03;;;2.50;70.00;;;;;;5022984;28;21066;-46
2022/04/04 05:38:55;;;;;;;12.87;11.47;;;2.50;70.10;;;;;;5023837;28;20491;-45
2022/04/04 05:41:22;;;;;;;14.60;12.33;;;2.50;70.00;;;;;;5022679;28;20455;-46
2022/04/04 05:43:49;;;;;;;11.53;10.30;;;2.60;70.10;;;;;;5025002;28;20446;-45
2022/04/04 05:46:17;;;;;;;17.93;11.97;;;2.60;70.00;;;;;;5006219;28;20466;-46
2022/04/04 05:48:44;;;;;;;13.00;10.50;;;2.70;69.40;;;;;;5008169;28;20510;-45
2022/04/04 05:51:13;;;;;;;12.57;11.20;;;2.70;69.30;;;;;;5022200;28;20547;-45
2022/04/04 05:53:40;;;;;;;11.60;10.40;;;2.70;69.50;;;;;;5013272;28;20964;-46
2022/04/04 05:56:07;;;;;;;11.77;10.57;;;2.70;69.60;;;;;;5024345;28;20566;-45
2022/04/04 05:58:34;;;;;;;11.10;9.90;;;2.70;69.60;;;;;;5023059;28;20887;-45
2022/04/04 06:01:00;;;;;;;11.73;10.30;;;2.70;69.20;;;;;;5003438;28;20564;-46
2022/04/04 06:03:28;;;;;;;10.83;9.73;;;2.80;68.60;;;;;;5024301;28;20451;-45
2022/04/04 06:05:55;;;;;;;17.77;11.77;;;2.80;68.50;;;;;;5002939;28;21010;-45
2022/04/04 06:08:22;;;;;;;17.00;11.80;;;2.90;68.80;;;;;;5028097;28;20486;-45
2022/04/04 06:10:49;;;;;;;14.00;10.83;;;2.90;68.70;;;;;;5023720;28;20467;-45
2022/04/04 06:13:17;;;;;;;14.47;11.50;;;2.90;68.40;;;;;;5023723;28;20463;-46
2022/04/04 06:15:46;;;;;;;12.13;10.93;;;3.00;68.30;;;;;;5010724;28;21008;-45
2022/04/04 06:18:13;;;;;;;12.77;11.40;;;3.10;67.80;;;;;;5022314;28;20513;-45
2022/04/04 06:20:40;;;;;;;13.20;11.20;;;3.10;67.90;;;;;;5021168;28;20831;-45
2022/04/04 06:23:08;;;;;;;12.13;10.90;;;3.10;68.20;;;;;;5028229;28;21044;-46
2022/04/04 06:25:35;;;;;;;13.50;11.80;;;3.10;67.50;;;;;;5004945;28;20483;-46
2022/04/04 06:28:03;;;;;;;13.60;11.30;;;3.20;67.80;;;;;;5029148;28;20487;-46
2022/04/04 06:30:30;;;;;;;12.90;10.90;;;3.10;68.10;;;;;;5026699;28;20510;-46
2022/04/04 06:32:57;;;;;;;11.97;10.17;;;3.20;68.30;;;;;;4991226;28;20454;-46
2022/04/04 06:35:25;;;;;;;12.23;10.97;;;3.20;67.80;;;;;;5026741;28;21008;-45
2022/04/04 06:37:52;;;;;;;11.40;9.63;;;3.30;67.00;;;;;;5022082;28;20451;-46
2022/04/04 06:40:19;;;;;;;12.57;10.80;;;3.30;67.10;;;;;;5028407;28;20547;-45
2022/04/04 06:42:46;;;;;;;12.50;10.07;;;3.40;67.10;;;;;;5027974;28;20451;-46
2022/04/04 06:45:13;;;;;;;11.80;9.80;;;3.40;66.90;;;;;;5009171;28;20477;-46
2022/04/04 06:47:40;;;;;;;12.23;8.83;;;3.40;65.80;;;;;;5026929;28;20487;-46
2022/04/04 06:50:07;;;;;;;9.17;8.27;;;3.50;62.70;;;;;;5025853;28;20534;-45
2022/04/04 06:52:35;;;;;;;9.70;8.70;;;3.50;62.30;;;;;;5026758;28;20478;-45
2022/04/04 06:55:02;;;;;;;11.47;9.87;;;3.60;62.20;;;;;;5029679;28;20497;-46
2022/04/04 06:57:28;;;;;;;9.00;8.10;;;3.60;62.30;;;;;;5027580;28;21003;-45
2022/04/04 06:59:59;;;;;;;8.40;7.50;;;3.70;61.20;;;;;;4999888;28;20458;-45
2022/04/04 07:02:27;;;;;;;9.53;7.67;;;3.80;61.20;;;;;;5008581;28;20459;-45
2022/04/04 07:04:54;;;;;;;9.77;8.80;;;3.80;60.90;;;;;;5027640;28;21051;-46
2022/04/04 07:07:22;;;;;;;12.00;9.77;;;4.00;60.40;;;;;;5023863;28;20452;-46
2022/04/04 07:09:49;;;;;;;9.00;8.00;;;4.10;59.60;;;;;;5004591;28;21048;-45
2022/04/04 07:12:16;;;;;;;8.97;7.50;;;4.10;58.90;;;;;;5008531;28;20460;-44
2022/04/04 07:14:42;;;;;;;8.33;7.43;;;4.20;59.70;;;;;;5027891;28;20448;-45
2022/04/04 07:17:09;;;;;;;8.10;7.37;;;4.20;58.90;;;;;;5025930;28;20496;-45
2022/04/04 07:19:36;;;;;;;10.40;8.23;;;4.30;57.30;;;;;;5010103;28;20452;-45
2022/04/04 07:22:03;;;;;;;12.80;8.60;;;4.30;57.40;;;;;;5010307;28;20450;-45
2022/04/04 07:24:30;;;;;;;10.37;8.40;;;4.40;58.00;;;;;;5025989;28;20678;-45
2022/04/04 07:26:57;;;;;;;9.37;8.30;;;4.40;58.30;;;;;;5024417;28;21095;-45
2022/04/04 07:29:25;;;;;;;8.90;7.93;;;4.50;57.90;;;;;;5009523;28;21080;-45
2022/04/04 07:31:53;;;;;;;9.17;7.93;;;4.60;58.00;;;;;;5027603;28;20495;-44
2022/04/04 07:34:20;;;;;;;9.13;8.17;;;4.70;57.40;;;;;;5011436;28;20903;-45
2022/04/04 07:36:47;;;;;;;12.73;8.23;;;4.70;57.60;;;;;;5021322;28;20491;-46
2022/04/04 07:39:13;;;;;;;11.10;8.77;;;4.80;57.00;;;;;;5027915;28;20829;-45
2022/04/04 07:41:40;;;;;;;10.83;7.67;;;4.90;56.70;;;;;;5025862;28;20459;-45
2022/04/04 07:44:07;;;;;;;11.50;9.70;;;5.00;56.80;;;;;;5026955;28;20861;-45
2022/04/04 07:46:34;;;;;;;8.60;7.10;;;5.20;55.90;;;;;;5026798;28;20466;-44
2022/04/04 07:49:01;;;;;;;9.90;8.40;;;5.30;55.70;;;;;;5027480;28;20439;-45
2022/04/04 07:51:27;;;;;;;8.60;7.70;;;5.40;55.00;;;;;;5023930;28;20459;-45
2022/04/04 07:53:56;;;;;;;9.27;7.80;;;5.50;55.30;;;;;;5018894;28;20456;-45
2022/04/04 07:56:23;;;;;;;10.10;8.07;;;5.60;54.60;;;;;;5021441;28;20884;-46
2022/04/04 07:58:50;;;;;;;16.33;11.37;;;5.80;54.90;;;;;;5023977;28;20556;-45
2022/04/04 08:01:17;;;;;;;9.17;8.27;;;5.90;55.00;;;;;;5023825;28;20452;-45
2022/04/04 08:03:45;;;;;;;8.57;7.67;;;6.10;53.90;;;;;;5022399;28;20459;-45
2022/04/04 08:06:12;;;;;;;8.17;7.37;;;6.10;54.10;;;;;;5026402;28;20463;-45
2022/04/04 08:08:38;;;;;;;9.00;8.07;;;6.20;53.50;;;;;;5024875;28;21017;-45
2022/04/04 08:11:08;;;;;;;8.53;7.73;;;6.30;53.20;;;;;;5008811;28;20458;-45
2022/04/04 08:13:34;;;;;;;10.67;8.40;;;6.40;53.10;;;;;;5024408;28;20471;-45
2022/04/04 08:16:02;;;;;;;8.87;7.67;;;6.50;53.40;;;;;;5026761;28;20518;-45
2022/04/04 08:18:28;;;;;;;9.40;8.23;;;6.70;53.10;;;;;;5023555;28;20468;-45
2022/04/04 08:20:57;;;;;;;8.93;8.03;;;6.80;53.60;;;;;;5007832;28;20536;-45
2022/04/04 08:23:31;;;;;;;8.03;7.20;;;7.00;51.80;;;;;;5026479;28;20444;-44
2022/04/04 08:25:59;;;;;;;8.23;7.37;;;7.20;51.30;;;;;;5025678;28;20459;-44
2022/04/04 08:28:28;;;;;;;8.50;6.57;;;7.20;51.00;;;;;;5024893;28;20965;-44
2022/04/04 08:30:56;;;;;;;7.00;6.40;;;7.30;50.50;;;;;;5022366;28;20490;-44
2022/04/04 08:33:24;;;;;;;8.30;6.87;;;7.40;50.90;;;;;;5005155;28;20474;-45
2022/04/04 08:35:55;;;;;;;11.60;6.60;;;7.60;49.80;;;;;;5020076;28;20487;-45
2022/04/04 08:38:22;;;;;;;9.00;6.23;;;7.70;49.40;;;;;;5024033;28;20460;-45
2022/04/04 08:40:51;;;;;;;7.43;6.70;;;7.80;49.40;;;;;;5008500;28;20457;-45
2022/04/04 08:43:18;;;;;;;6.97;6.37;;;7.90;49.40;;;;;;5025874;28;20474;-44
2022/04/04 08:45:48;;;;;;;8.87;6.97;;;8.00;49.60;;;;;;5025740;28;20473;-45
2022/04/04 08:48:16;;;;;;;7.10;6.40;;;8.20;48.40;;;;;;5024632;28;20521;-45
2022/04/04 08:50:44;;;;;;;8.77;6.90;;;8.30;48.90;;;;;;5022404;28;21372;-42
2022/04/04 08:53:11;;;;;;;7.53;6.80;;;8.50;48.50;;;;;;5006644;28;20460;-42
2022/04/04 08:55:37;;;;;;;7.40;6.60;;;8.60;47.80;;;;;;5007710;28;20488;-42
2022/04/04 08:58:05;;;;;;;9.13;6.80;;;8.80;47.60;;;;;;5023163;28;20459;-42
2022/04/04 09:00:33;;;;;;;7.07;6.40;;;9.00;47.70;;;;;;5024933;28;20471;-42
2022/04/04 09:03:05;;;;;;;8.03;7.17;;;9.20;46.80;;;;;;5023630;28;20464;-42
2022/04/04 09:05:34;;;;;;;7.60;7.00;;;9.30;45.60;;;;;;5020545;28;20917;-41
2022/04/04 09:08:05;;;;;;;7.73;7.07;;;9.30;46.10;;;;;;5020002;28;20463;-42
2022/04/04 09:10:37;;;;;;;10.10;6.20;;;9.40;46.10;;;;;;5021439;28;20560;-42
2022/04/04 09:13:09;;;;;;;8.20;7.33;;;9.60;45.90;;;;;;5024074;28;20463;-42
2022/04/04 09:15:58;;;;;;;8.30;7.10;;;9.70;45.30;;;;;;5026352;28;20452;-42
2022/04/04 09:18:37;;;;;;;9.07;7.03;;;9.70;45.10;;;;;;5024856;28;20453;-42
2022/04/04 09:21:08;;;;;;;8.10;6.80;;;9.70;44.60;;;;;;5025212;28;20476;-42
2022/04/04 09:23:45;;;;;;;6.90;6.27;;;9.70;45.30;;;;;;5025349;28;20458;-42
2022/04/04 09:26:32;;;;;;;7.60;6.90;;;9.80;45.80;;;;;;5024999;28;20452;-42
2022/04/04 09:29:01;;;;;;;6.90;6.30;;;10.20;45.10;;;;;;5025963;28;20464;-42
2022/04/04 09:31:28;;;;;;;7.40;6.57;;;10.40;44.00;;;;;;5030160;28;20468;-42
2022/04/04 09:34:00;;;;;;;8.17;7.23;;;10.60;45.00;;;;;;4991487;28;20471;-43
2022/04/04 09:36:28;;;;;;;6.83;6.23;;;10.90;43.60;;;;;;5030678;28;20480;-42
2022/04/04 09:39:08;;;;;;;8.20;7.50;;;11.00;42.80;;;;;;5029224;28;20524;-41
2022/04/04 09:41:39;;;;;;;8.47;7.80;;;11.10;43.20;;;;;;5030486;28;20460;-42
2022/04/04 09:44:16;;;;;;;7.50;6.83;;;11.20;43.40;;;;;;5028917;28;20463;-42
2022/04/04 09:46:45;;;;;;;7.27;6.57;;;11.20;42.90;;;;;;5009288;28;20546;-42
2022/04/04 09:49:16;;;;;;;5.93;5.43;;;11.10;41.20;;;;;;5026333;28;20496;-42
2022/04/04 09:52:01;;;;;;;7.00;6.40;;;10.90;41.80;;;;;;5025600;28;20517;-40
2022/04/04 09:54:29;;;;;;;6.80;6.20;;;10.80;42.90;;;;;;5030520;28;20483;-41
2022/04/04 09:57:17;;;;;;;6.00;5.50;;;10.90;42.70;;;;;;5027169;28;20499;-42
2022/04/04 09:59:43;;;;;;;6.43;5.47;;;11.10;41.70;;;;;;5030071;28;20455;-41
2022/04/04 10:02:13;;;;;;;6.10;5.60;;;11.20;41.50;;;;;;5011700;28;20463;-42
2022/04/04 10:04:45;;;;;;;6.30;5.70;;;11.20;40.60;;;;;;5028716;28;20487;-41
2022/04/04 10:07:17;;;;;;;7.30;6.50;;;11.20;40.80;;;;;;5027873;28;20580;-41
2022/04/04 10:09:44;;;;;;;6.23;5.73;;;11.20;41.40;;;;;;5029084;28;20448;-41
2022/04/04 10:12:12;;;;;;;5.67;5.17;;;11.10;40.80;;;;;;5029426;28;20575;-41
2022/04/04 10:14:40;;;;;;;6.77;6.03;;;11.10;41.20;;;;;;5027068;28;20468;-41
2022/04/04 10:17:07;;;;;;;7.30;5.80;;;11.10;40.90;;;;;;5010096;28;20491;-42
2022/04/04 10:19:34;;;;;;;6.00;5.50;;;11.10;40.20;;;;;;5009773;28;21276;-42
2022/04/04 10:22:01;;;;;;;6.13;5.63;;;11.20;40.80;;;;;;5011868;28;20835;-42
2022/04/04 10:24:29;;;;;;;9.37;5.10;;;11.40;40.50;;;;;;5029946;28;20443;-42
2022/04/04 10:26:58;;;;;;;6.60;6.00;;;11.70;40.90;;;;;;5029678;28;20451;-42
2022/04/04 10:29:37;;;;;;;6.80;6.20;;;11.90;41.30;;;;;;5028843;28;20552;-43
2022/04/04 10:32:05;;;;;;;6.47;5.70;;;12.40;40.40;;;;;;5029761;28;20805;-43
2022/04/04 10:34:42;;;;;;;7.90;7.10;;;12.70;39.70;;;;;;5026461;28;20491;-41
2022/04/04 10:37:09;;;;;;;7.87;6.00;;;12.90;39.00;;;;;;5024612;28;20850;-42
2022/04/04 10:39:45;;;;;;;6.83;5.97;;;12.90;39.30;;;;;;5026421;28;20472;-42
2022/04/04 10:42:27;;;;;;;6.40;5.90;;;12.80;38.20;;;;;;5025332;28;20461;-41
2022/04/04 10:45:09;;;;;;;5.70;5.30;;;12.70;38.30;;;;;;5029764;28;20451;-42
2022/04/04 10:47:44;;;;;;;6.80;6.20;;;12.70;38.90;;;;;;5027941;28;20996;-42
2022/04/04 10:50:29;;;;;;;6.00;5.50;;;12.70;39.70;;;;;;5029865;28;20531;-42
2022/04/04 10:53:02;;;;;;;6.30;5.70;;;12.70;38.10;;;;;;5011767;28;20491;-42
2022/04/04 10:55:40;;;;;;;6.13;5.53;;;12.60;38.00;;;;;;5008833;28;20994;-42
2022/04/04 10:58:11;;;;;;;6.63;5.93;;;12.70;38.30;;;;;;5028259;28;20501;-42
2022/04/04 11:01:04;;;;;;;7.33;6.70;;;12.70;39.10;;;;;;5026789;28;20504;-42
2022/04/04 11:03:42;;;;;;;8.67;5.63;;;12.70;38.20;;;;;;5024372;28;20462;-42
2022/04/04 11:09:19;;;;;;;6.37;5.77;;;12.30;39.50;;;;;;5011299;28;20923;-42
2022/04/04 11:11:54;;;;;;;6.13;5.67;;;12.20;39.60;;;;;;5027045;28;20496;-42
2022/04/04 11:14:36;;;;;;;6.53;5.33;;;12.10;39.10;;;;;;5028434;28;20944;-41
2022/04/04 11:17:06;;;;;;;7.00;6.00;;;12.00;38.80;;;;;;5026785;28;21292;-41
2022/04/04 11:19:42;;;;;;;11.23;6.80;;;12.10;38.30;;;;;;5024344;28;20565;-41
2022/04/04 11:22:12;;;;;;;6.33;5.73;;;12.10;38.30;;;;;;5023236;28;20471;-42
2022/04/04 11:24:39;;;;;;;8.00;5.40;;;12.30;38.80;;;;;;5026105;28;20469;-42
2022/04/04 11:27:07;;;;;;;6.57;5.37;;;12.40;38.60;;;;;;5005635;28;20464;-42
2022/04/04 11:29:37;;;;;;;7.00;6.30;;;12.50;38.70;;;;;;5023289;28;20560;-42
2022/04/04 11:32:04;;;;;;;6.10;5.60;;;12.70;37.90;;;;;;5025353;28;20473;-43
2022/04/04 11:34:31;;;;;;;5.90;5.40;;;12.80;38.10;;;;;;5027422;28;20465;-43
2022/04/04 11:36:58;;;;;;;6.90;6.10;;;12.90;37.40;;;;;;5027521;28;20527;-42
2022/04/04 11:39:25;;;;;;;5.20;4.80;;;12.70;37.00;;;;;;5027849;28;21334;-42
2022/04/04 11:42:07;;;;;;;6.00;5.50;;;12.50;37.00;;;;;;5027511;28;20957;-43
2022/04/04 11:44:37;;;;;;;6.00;5.50;;;12.30;38.30;;;;;;5027705;28;20944;-42
2022/04/04 11:47:06;;;;;;;5.70;5.30;;;12.40;37.20;;;;;;5027249;28;20455;-42
2022/04/04 11:49:38;;;;;;;5.40;4.90;;;12.40;37.10;;;;;;5026356;28;20540;-42
2022/04/04 11:52:09;;;;;;;5.00;4.60;;;12.20;36.80;;;;;;5026720;28;20468;-42
2022/04/04 11:54:40;;;;;;;5.10;4.70;;;12.00;37.90;;;;;;5025406;28;20460;-43
2022/04/04 11:57:08;;;;;;;5.23;4.73;;;11.90;37.70;;;;;;5027107;28;20483;-41
2022/04/04 11:59:42;;;;;;;8.10;5.70;;;11.80;38.60;;;;;;5027070;28;20448;-42
2022/04/04 12:02:11;;;;;;;6.70;5.00;;;11.70;38.70;;;;;;5026761;28;20463;-42
2022/04/04 12:04:39;;;;;;;5.27;4.87;;;11.60;38.70;;;;;;5010035;28;20540;-42
2022/04/04 12:07:09;;;;;;;5.93;5.33;;;11.60;38.80;;;;;;5026934;28;20463;-42
2022/04/04 12:09:37;;;;;;;4.80;4.40;;;11.50;39.20;;;;;;5025058;28;20465;-42
2022/04/04 12:12:13;;;;;;;6.60;4.50;;;11.40;38.80;;;;;;5007854;28;20460;-42
2022/04/04 12:14:42;;;;;;;5.43;4.93;;;11.30;38.00;;;;;;4986270;28;20469;-41
2022/04/04 12:17:16;;;;;;;6.57;6.07;;;11.10;38.50;;;;;;5022641;28;20573;-42
2022/04/04 12:19:47;;;;;;;7.20;6.50;;;11.00;39.20;;;;;;5007132;28;20559;-42
2022/04/04 12:25:02;;;;;;;5.17;4.67;;;10.60;39.00;;;;;;5025340;28;20475;-42
2022/04/04 12:27:29;;;;;;;6.07;5.47;;;10.40;39.60;;;;;;5025527;28;20568;-42
2022/04/04 12:30:01;;;;;;;6.10;5.50;;;10.40;40.70;;;;;;5028179;28;20964;-41
2022/04/04 12:32:39;;;;;;;5.67;5.20;;;10.40;41.20;;;;;;5025424;28;21109;-42
2022/04/04 12:35:08;;;;;;;4.97;4.53;;;10.40;40.60;;;;;;5025023;28;20515;-42
2022/04/04 12:37:38;;;;;;;5.37;4.87;;;10.40;40.70;;;;;;5023175;28;20573;-42
2022/04/04 12:40:20;;;;;;;6.10;5.10;;;10.40;40.30;;;;;;5025978;28;20953;-41
2022/04/04 12:42:49;;;;;;;5.90;5.13;;;10.40;39.40;;;;;;5026452;28;20458;-41
2022/04/04 12:45:18;;;;;;;5.20;4.70;;;10.30;40.40;;;;;;5025390;28;20949;-41
2022/04/04 12:48:07;;;;;;;4.97;4.57;;;10.30;40.90;;;;;;5023355;28;20467;-42
2022/04/04 12:50:39;;;;;;;5.93;4.90;;;10.30;40.20;;;;;;5009968;28;20850;-42
2022/04/04 12:53:07;;;;;;;6.57;5.87;;;10.40;40.50;;;;;;5026668;28;20460;-42
2022/04/04 12:55:36;;;;;;;5.43;4.93;;;10.50;41.20;;;;;;5024639;28;20846;-42
2022/04/04 12:58:22;;;;;;;5.70;5.20;;;10.60;41.90;;;;;;5022866;28;20495;-42
2022/04/04 13:00:52;;;;;;;5.83;5.33;;;10.80;41.50;;;;;;5008787;28;20554;-42
2022/04/04 13:03:26;;;;;;;5.57;4.97;;;10.90;41.40;;;;;;5026304;28;20457;-42